sensor_id;sensor_type;location;lat;lon;timestamp;P1;durP1;ratioP1;P2;durP2;ratioP2
60241;SDS011;46103;52.076;113.488;2023-07-30T00:02:03;13.07;;;9.57;;
60241;SDS011;46103;52.076;113.488;2023-07-30T00:05:10;13.63;;;9.10;;
60241;SDS011;46103;52.076;113.488;2023-07-30T00:08:15;11.93;;;8.98;;
60241;SDS011;46103;52.076;113.488;2023-07-30T00:11:21;10.98;;;9.60;;
60241;SDS011;46103;52.076;113.488;2023-07-30T00:14:27;11.82;;;9.43;;
60241;SDS011;46103;52.076;113.488;2023-07-30T00:17:34;11.25;;;8.95;;
60241;SDS011;46103;52.076;113.488;2023-07-30T00:20:40;11.52;;;9.25;;
60241;SDS011;46103;52.076;113.488;2023-07-30T00:23:48;13.52;;;9.35;;
60241;SDS011;46103;52.076;113.488;2023-07-30T00:26:53;12.52;;;9.88;;
60241;SDS011;46103;52.076;113.488;2023-07-30T00:29:59;12.50;;;10.30;;
60241;SDS011;46103;52.076;113.488;2023-07-30T00:33:05;12.98;;;11.30;;
60241;SDS011;46103;52.076;113.488;2023-07-30T00:36:13;15.27;;;10.57;;
60241;SDS011;46103;52.076;113.488;2023-07-30T00:39:18;14.93;;;10.85;;
60241;SDS011;46103;52.076;113.488;2023-07-30T00:42:26;13.65;;;10.90;;
60241;SDS011;46103;52.076;113.488;2023-07-30T00:45:34;11.07;;;8.95;;
60241;SDS011;46103;52.076;113.488;2023-07-30T00:48:41;13.05;;;9.93;;
60241;SDS011;46103;52.076;113.488;2023-07-30T00:51:47;14.20;;;10.30;;
60241;SDS011;46103;52.076;113.488;2023-07-30T00:54:53;13.18;;;9.57;;
60241;SDS011;46103;52.076;113.488;2023-07-30T00:58:15;13.02;;;9.60;;
60241;SDS011;46103;52.076;113.488;2023-07-30T01:01:24;11.98;;;9.32;;
60241;SDS011;46103;52.076;113.488;2023-07-30T01:04:31;13.57;;;9.27;;
60241;SDS011;46103;52.076;113.488;2023-07-30T01:07:37;13.60;;;9.93;;
60241;SDS011;46103;52.076;113.488;2023-07-30T01:10:43;11.95;;;10.10;;
60241;SDS011;46103;52.076;113.488;2023-07-30T01:13:52;12.73;;;9.77;;
60241;SDS011;46103;52.076;113.488;2023-07-30T01:16:59;14.15;;;10.43;;
60241;SDS011;46103;52.076;113.488;2023-07-30T01:20:10;12.32;;;10.35;;
60241;SDS011;46103;52.076;113.488;2023-07-30T01:23:16;12.52;;;10.00;;
60241;SDS011;46103;52.076;113.488;2023-07-30T01:26:27;13.82;;;10.73;;
60241;SDS011;46103;52.076;113.488;2023-07-30T01:30:06;13.45;;;10.88;;
60241;SDS011;46103;52.076;113.488;2023-07-30T01:33:14;13.05;;;10.57;;
60241;SDS011;46103;52.076;113.488;2023-07-30T01:36:20;13.25;;;10.70;;
60241;SDS011;46103;52.076;113.488;2023-07-30T01:39:27;12.25;;;10.90;;
60241;SDS011;46103;52.076;113.488;2023-07-30T01:42:33;12.32;;;10.48;;
60241;SDS011;46103;52.076;113.488;2023-07-30T01:45:43;11.57;;;10.05;;
60241;SDS011;46103;52.076;113.488;2023-07-30T01:48:50;12.50;;;10.48;;
60241;SDS011;46103;52.076;113.488;2023-07-30T01:51:56;11.73;;;9.77;;
60241;SDS011;46103;52.076;113.488;2023-07-30T01:55:04;14.50;;;12.23;;
60241;SDS011;46103;52.076;113.488;2023-07-30T01:58:11;12.95;;;11.15;;
60241;SDS011;46103;52.076;113.488;2023-07-30T02:01:17;14.98;;;11.50;;
60241;SDS011;46103;52.076;113.488;2023-07-30T02:04:24;13.55;;;10.82;;
60241;SDS011;46103;52.076;113.488;2023-07-30T02:07:31;12.02;;;10.65;;
60241;SDS011;46103;52.076;113.488;2023-07-30T02:10:37;13.43;;;10.88;;
60241;SDS011;46103;52.076;113.488;2023-07-30T02:13:44;11.70;;;9.85;;
60241;SDS011;46103;52.076;113.488;2023-07-30T02:16:50;12.43;;;10.18;;
60241;SDS011;46103;52.076;113.488;2023-07-30T02:19:56;9.60;;;7.05;;
60241;SDS011;46103;52.076;113.488;2023-07-30T02:23:04;7.53;;;5.88;;
60241;SDS011;46103;52.076;113.488;2023-07-30T02:26:12;7.22;;;5.45;;
60241;SDS011;46103;52.076;113.488;2023-07-30T02:29:19;7.07;;;5.30;;
60241;SDS011;46103;52.076;113.488;2023-07-30T02:32:26;6.63;;;5.13;;
60241;SDS011;46103;52.076;113.488;2023-07-30T02:35:34;7.55;;;5.22;;
60241;SDS011;46103;52.076;113.488;2023-07-30T02:38:41;6.65;;;5.72;;
60241;SDS011;46103;52.076;113.488;2023-07-30T02:41:48;6.60;;;5.38;;
60241;SDS011;46103;52.076;113.488;2023-07-30T02:44:55;6.72;;;5.63;;
60241;SDS011;46103;52.076;113.488;2023-07-30T02:48:03;7.25;;;6.45;;
60241;SDS011;46103;52.076;113.488;2023-07-30T02:51:12;7.55;;;5.63;;
60241;SDS011;46103;52.076;113.488;2023-07-30T02:54:18;7.15;;;6.07;;
60241;SDS011;46103;52.076;113.488;2023-07-30T02:57:27;6.85;;;6.15;;
60241;SDS011;46103;52.076;113.488;2023-07-30T03:00:34;7.32;;;6.28;;
60241;SDS011;46103;52.076;113.488;2023-07-30T03:03:41;7.55;;;6.00;;
60241;SDS011;46103;52.076;113.488;2023-07-30T03:06:47;8.32;;;5.78;;
60241;SDS011;46103;52.076;113.488;2023-07-30T03:09:56;7.35;;;6.18;;
60241;SDS011;46103;52.076;113.488;2023-07-30T03:13:02;7.00;;;5.78;;
60241;SDS011;46103;52.076;113.488;2023-07-30T03:16:11;6.95;;;5.53;;
60241;SDS011;46103;52.076;113.488;2023-07-30T03:19:17;7.53;;;5.78;;
60241;SDS011;46103;52.076;113.488;2023-07-30T03:22:31;7.57;;;6.25;;
60241;SDS011;46103;52.076;113.488;2023-07-30T03:25:38;7.30;;;6.60;;
60241;SDS011;46103;52.076;113.488;2023-07-30T03:28:47;6.93;;;6.22;;
60241;SDS011;46103;52.076;113.488;2023-07-30T03:31:55;7.30;;;6.30;;
60241;SDS011;46103;52.076;113.488;2023-07-30T03:35:04;6.78;;;5.95;;
60241;SDS011;46103;52.076;113.488;2023-07-30T03:38:12;7.13;;;6.43;;
60241;SDS011;46103;52.076;113.488;2023-07-30T03:41:17;7.40;;;6.70;;
60241;SDS011;46103;52.076;113.488;2023-07-30T03:44:24;7.38;;;6.65;;
60241;SDS011;46103;52.076;113.488;2023-07-30T03:47:29;7.45;;;6.75;;
60241;SDS011;46103;52.076;113.488;2023-07-30T03:50:36;6.97;;;6.30;;
60241;SDS011;46103;52.076;113.488;2023-07-30T03:53:53;6.53;;;5.80;;
60241;SDS011;46103;52.076;113.488;2023-07-30T03:57:03;7.20;;;6.00;;
60241;SDS011;46103;52.076;113.488;2023-07-30T04:00:22;7.00;;;6.28;;
60241;SDS011;46103;52.076;113.488;2023-07-30T04:03:30;7.57;;;6.30;;
60241;SDS011;46103;52.076;113.488;2023-07-30T04:06:38;7.47;;;6.68;;
60241;SDS011;46103;52.076;113.488;2023-07-30T04:09:45;7.55;;;6.72;;
60241;SDS011;46103;52.076;113.488;2023-07-30T04:12:55;7.15;;;6.45;;
60241;SDS011;46103;52.076;113.488;2023-07-30T04:16:03;7.15;;;6.45;;
60241;SDS011;46103;52.076;113.488;2023-07-30T04:19:09;7.72;;;7.03;;
60241;SDS011;46103;52.076;113.488;2023-07-30T04:22:30;6.65;;;6.05;;
60241;SDS011;46103;52.076;113.488;2023-07-30T04:25:35;7.25;;;6.57;;
60241;SDS011;46103;52.076;113.488;2023-07-30T04:28:46;8.02;;;7.22;;
60241;SDS011;46103;52.076;113.488;2023-07-30T04:31:51;7.05;;;6.10;;
60241;SDS011;46103;52.076;113.488;2023-07-30T04:34:58;7.55;;;6.85;;
60241;SDS011;46103;52.076;113.488;2023-07-30T04:38:06;8.45;;;6.78;;
60241;SDS011;46103;52.076;113.488;2023-07-30T04:41:24;7.40;;;6.40;;
60241;SDS011;46103;52.076;113.488;2023-07-30T04:44:32;7.75;;;6.95;;
60241;SDS011;46103;52.076;113.488;2023-07-30T04:47:49;7.32;;;6.63;;
60241;SDS011;46103;52.076;113.488;2023-07-30T04:51:12;7.80;;;7.00;;
60241;SDS011;46103;52.076;113.488;2023-07-30T04:54:31;7.60;;;6.90;;
60241;SDS011;46103;52.076;113.488;2023-07-30T04:57:39;7.97;;;6.70;;
60241;SDS011;46103;52.076;113.488;2023-07-30T05:00:47;8.10;;;7.30;;
60241;SDS011;46103;52.076;113.488;2023-07-30T05:03:52;8.45;;;6.80;;
60241;SDS011;46103;52.076;113.488;2023-07-30T05:07:01;9.23;;;7.20;;
60241;SDS011;46103;52.076;113.488;2023-07-30T05:10:06;8.68;;;7.63;;
60241;SDS011;46103;52.076;113.488;2023-07-30T05:13:17;8.00;;;7.25;;
60241;SDS011;46103;52.076;113.488;2023-07-30T05:16:22;7.63;;;6.80;;
60241;SDS011;46103;52.076;113.488;2023-07-30T05:19:31;7.13;;;6.43;;
60241;SDS011;46103;52.076;113.488;2023-07-30T05:22:36;7.70;;;6.93;;
60241;SDS011;46103;52.076;113.488;2023-07-30T05:25:55;8.10;;;7.35;;
60241;SDS011;46103;52.076;113.488;2023-07-30T05:29:00;7.47;;;6.78;;
60241;SDS011;46103;52.076;113.488;2023-07-30T05:32:08;7.00;;;6.30;;
60241;SDS011;46103;52.076;113.488;2023-07-30T05:35:19;8.35;;;7.43;;
60241;SDS011;46103;52.076;113.488;2023-07-30T05:38:28;7.72;;;6.93;;
60241;SDS011;46103;52.076;113.488;2023-07-30T05:41:34;8.25;;;7.45;;
60241;SDS011;46103;52.076;113.488;2023-07-30T05:44:45;7.72;;;7.03;;
60241;SDS011;46103;52.076;113.488;2023-07-30T05:47:51;7.75;;;7.00;;
60241;SDS011;46103;52.076;113.488;2023-07-30T05:50:57;7.70;;;7.00;;
60241;SDS011;46103;52.076;113.488;2023-07-30T05:54:04;7.97;;;7.20;;
60241;SDS011;46103;52.076;113.488;2023-07-30T05:57:12;8.43;;;7.05;;
60241;SDS011;46103;52.076;113.488;2023-07-30T06:00:19;8.32;;;7.50;;
60241;SDS011;46103;52.076;113.488;2023-07-30T06:03:26;7.68;;;6.97;;
60241;SDS011;46103;52.076;113.488;2023-07-30T06:06:32;8.35;;;7.35;;
60241;SDS011;46103;52.076;113.488;2023-07-30T06:09:39;9.10;;;8.30;;
60241;SDS011;46103;52.076;113.488;2023-07-30T06:12:51;8.07;;;7.38;;
60241;SDS011;46103;52.076;113.488;2023-07-30T06:15:57;8.27;;;7.50;;
60241;SDS011;46103;52.076;113.488;2023-07-30T06:19:10;9.20;;;8.40;;
60241;SDS011;46103;52.076;113.488;2023-07-30T06:22:17;8.52;;;7.82;;
60241;SDS011;46103;52.076;113.488;2023-07-30T06:25:35;9.02;;;8.23;;
60241;SDS011;46103;52.076;113.488;2023-07-30T06:28:42;9.13;;;8.18;;
60241;SDS011;46103;52.076;113.488;2023-07-30T06:31:56;8.52;;;7.82;;
60241;SDS011;46103;52.076;113.488;2023-07-30T06:35:04;9.25;;;8.38;;
60241;SDS011;46103;52.076;113.488;2023-07-30T06:38:11;8.55;;;7.85;;
60241;SDS011;46103;52.076;113.488;2023-07-30T06:41:17;8.82;;;8.23;;
60241;SDS011;46103;52.076;113.488;2023-07-30T06:44:24;9.07;;;8.38;;
60241;SDS011;46103;52.076;113.488;2023-07-30T06:47:41;8.85;;;8.02;;
60241;SDS011;46103;52.076;113.488;2023-07-30T06:50:45;8.18;;;7.47;;
60241;SDS011;46103;52.076;113.488;2023-07-30T06:53:49;9.10;;;8.40;;
60241;SDS011;46103;52.076;113.488;2023-07-30T06:56:52;8.88;;;8.18;;
60241;SDS011;46103;52.076;113.488;2023-07-30T06:59:55;10.32;;;9.52;;
60241;SDS011;46103;52.076;113.488;2023-07-30T07:03:00;9.90;;;9.10;;
60241;SDS011;46103;52.076;113.488;2023-07-30T07:06:05;9.48;;;8.68;;
60241;SDS011;46103;52.076;113.488;2023-07-30T07:09:18;9.30;;;8.60;;
60241;SDS011;46103;52.076;113.488;2023-07-30T07:12:23;10.98;;;9.98;;
60241;SDS011;46103;52.076;113.488;2023-07-30T07:15:26;10.02;;;9.30;;
60241;SDS011;46103;52.076;113.488;2023-07-30T07:18:32;9.77;;;9.07;;
60241;SDS011;46103;52.076;113.488;2023-07-30T07:21:35;9.98;;;9.27;;
60241;SDS011;46103;52.076;113.488;2023-07-30T07:24:39;10.07;;;9.38;;
60241;SDS011;46103;52.076;113.488;2023-07-30T07:27:42;11.45;;;10.73;;
60241;SDS011;46103;52.076;113.488;2023-07-30T07:30:46;10.32;;;9.63;;
60241;SDS011;46103;52.076;113.488;2023-07-30T07:34:30;10.48;;;9.77;;
60241;SDS011;46103;52.076;113.488;2023-07-30T07:37:33;11.20;;;10.30;;
60241;SDS011;46103;52.076;113.488;2023-07-30T07:40:37;12.55;;;11.75;;
60241;SDS011;46103;52.076;113.488;2023-07-30T07:43:45;11.48;;;10.77;;
60241;SDS011;46103;52.076;113.488;2023-07-30T07:46:50;12.50;;;11.65;;
60241;SDS011;46103;52.076;113.488;2023-07-30T07:49:54;11.25;;;10.45;;
60241;SDS011;46103;52.076;113.488;2023-07-30T07:52:57;13.77;;;12.85;;
60241;SDS011;46103;52.076;113.488;2023-07-30T07:56:01;12.25;;;11.48;;
60241;SDS011;46103;52.076;113.488;2023-07-30T07:59:05;14.60;;;13.73;;
60241;SDS011;46103;52.076;113.488;2023-07-30T08:02:09;16.27;;;15.40;;
60241;SDS011;46103;52.076;113.488;2023-07-30T08:05:13;14.10;;;13.13;;
60241;SDS011;46103;52.076;113.488;2023-07-30T08:08:18;14.60;;;13.73;;
60241;SDS011;46103;52.076;113.488;2023-07-30T08:11:21;19.73;;;18.83;;
60241;SDS011;46103;52.076;113.488;2023-07-30T08:14:25;16.33;;;15.43;;
60241;SDS011;46103;52.076;113.488;2023-07-30T08:17:30;12.93;;;12.00;;
60241;SDS011;46103;52.076;113.488;2023-07-30T08:20:34;13.98;;;13.02;;
60241;SDS011;46103;52.076;113.488;2023-07-30T08:23:37;11.88;;;10.88;;
60241;SDS011;46103;52.076;113.488;2023-07-30T08:26:41;10.77;;;10.07;;
60241;SDS011;46103;52.076;113.488;2023-07-30T08:29:44;10.43;;;9.63;;
60241;SDS011;46103;52.076;113.488;2023-07-30T08:32:48;10.40;;;9.55;;
60241;SDS011;46103;52.076;113.488;2023-07-30T08:35:54;11.82;;;10.93;;
60241;SDS011;46103;52.076;113.488;2023-07-30T08:39:00;10.23;;;9.32;;
60241;SDS011;46103;52.076;113.488;2023-07-30T08:42:07;10.18;;;9.38;;
60241;SDS011;46103;52.076;113.488;2023-07-30T08:45:11;8.82;;;8.02;;
60241;SDS011;46103;52.076;113.488;2023-07-30T08:48:20;9.68;;;8.98;;
60241;SDS011;46103;52.076;113.488;2023-07-30T08:51:24;8.55;;;7.78;;
60241;SDS011;46103;52.076;113.488;2023-07-30T08:54:30;8.82;;;8.13;;
60241;SDS011;46103;52.076;113.488;2023-07-30T08:57:48;9.60;;;8.70;;
60241;SDS011;46103;52.076;113.488;2023-07-30T09:00:53;8.98;;;8.07;;
60241;SDS011;46103;52.076;113.488;2023-07-30T09:03:58;11.93;;;11.10;;
60241;SDS011;46103;52.076;113.488;2023-07-30T09:07:08;9.50;;;7.90;;
60241;SDS011;46103;52.076;113.488;2023-07-30T09:10:13;9.07;;;8.27;;
60241;SDS011;46103;52.076;113.488;2023-07-30T09:13:21;10.10;;;9.20;;
60241;SDS011;46103;52.076;113.488;2023-07-30T09:16:27;10.35;;;9.55;;
60241;SDS011;46103;52.076;113.488;2023-07-30T09:19:35;10.52;;;9.68;;
60241;SDS011;46103;52.076;113.488;2023-07-30T09:22:39;10.50;;;9.68;;
60241;SDS011;46103;52.076;113.488;2023-07-30T09:25:43;10.10;;;9.20;;
60241;SDS011;46103;52.076;113.488;2023-07-30T09:28:52;11.93;;;10.95;;
60241;SDS011;46103;52.076;113.488;2023-07-30T09:31:59;11.15;;;10.25;;
60241;SDS011;46103;52.076;113.488;2023-07-30T09:35:09;10.30;;;9.55;;
60241;SDS011;46103;52.076;113.488;2023-07-30T09:38:14;10.80;;;10.10;;
60241;SDS011;46103;52.076;113.488;2023-07-30T09:41:17;10.25;;;9.48;;
60241;SDS011;46103;52.076;113.488;2023-07-30T09:44:21;9.48;;;8.60;;
60241;SDS011;46103;52.076;113.488;2023-07-30T09:47:26;13.52;;;12.30;;
60241;SDS011;46103;52.076;113.488;2023-07-30T09:50:30;12.57;;;11.52;;
60241;SDS011;46103;52.076;113.488;2023-07-30T09:53:35;12.52;;;11.55;;
60241;SDS011;46103;52.076;113.488;2023-07-30T09:56:40;12.32;;;11.43;;
60241;SDS011;46103;52.076;113.488;2023-07-30T10:00:02;13.02;;;12.18;;
60241;SDS011;46103;52.076;113.488;2023-07-30T10:03:11;12.77;;;11.98;;
60241;SDS011;46103;52.076;113.488;2023-07-30T10:06:18;11.80;;;11.00;;
60241;SDS011;46103;52.076;113.488;2023-07-30T10:09:22;12.50;;;11.60;;
60241;SDS011;46103;52.076;113.488;2023-07-30T10:12:29;11.98;;;11.18;;
60241;SDS011;46103;52.076;113.488;2023-07-30T10:15:35;12.98;;;11.98;;
60241;SDS011;46103;52.076;113.488;2023-07-30T10:18:42;11.07;;;10.18;;
60241;SDS011;46103;52.076;113.488;2023-07-30T10:21:46;11.98;;;11.15;;
60241;SDS011;46103;52.076;113.488;2023-07-30T10:25:00;11.23;;;10.43;;
60241;SDS011;46103;52.076;113.488;2023-07-30T10:28:05;12.13;;;11.32;;
60241;SDS011;46103;52.076;113.488;2023-07-30T10:31:10;10.40;;;9.60;;
60241;SDS011;46103;52.076;113.488;2023-07-30T10:34:16;9.40;;;8.70;;
60241;SDS011;46103;52.076;113.488;2023-07-30T10:37:20;8.30;;;7.60;;
60241;SDS011;46103;52.076;113.488;2023-07-30T10:40:24;8.52;;;7.82;;
60241;SDS011;46103;52.076;113.488;2023-07-30T10:43:29;9.30;;;8.60;;
60241;SDS011;46103;52.076;113.488;2023-07-30T10:46:34;9.13;;;8.43;;
60241;SDS011;46103;52.076;113.488;2023-07-30T10:49:39;10.50;;;9.63;;
60241;SDS011;46103;52.076;113.488;2023-07-30T10:52:50;9.45;;;8.75;;
60241;SDS011;46103;52.076;113.488;2023-07-30T10:55:54;9.60;;;8.80;;
60241;SDS011;46103;52.076;113.488;2023-07-30T10:59:13;11.32;;;10.52;;
60241;SDS011;46103;52.076;113.488;2023-07-30T11:02:19;8.55;;;7.78;;
60241;SDS011;46103;52.076;113.488;2023-07-30T11:05:25;8.30;;;7.60;;
60241;SDS011;46103;52.076;113.488;2023-07-30T11:08:35;8.25;;;7.55;;
60241;SDS011;46103;52.076;113.488;2023-07-30T11:11:40;7.72;;;7.00;;
60241;SDS011;46103;52.076;113.488;2023-07-30T11:14:45;8.77;;;7.97;;
60241;SDS011;46103;52.076;113.488;2023-07-30T11:17:53;8.75;;;7.95;;
60241;SDS011;46103;52.076;113.488;2023-07-30T11:21:09;7.82;;;7.03;;
60241;SDS011;46103;52.076;113.488;2023-07-30T11:24:14;8.43;;;7.18;;
60241;SDS011;46103;52.076;113.488;2023-07-30T11:27:18;8.27;;;7.55;;
60241;SDS011;46103;52.076;113.488;2023-07-30T11:30:22;8.63;;;7.75;;
60241;SDS011;46103;52.076;113.488;2023-07-30T11:33:26;9.25;;;8.35;;
60241;SDS011;46103;52.076;113.488;2023-07-30T11:36:32;8.52;;;7.68;;
60241;SDS011;46103;52.076;113.488;2023-07-30T11:39:40;8.30;;;7.43;;
60241;SDS011;46103;52.076;113.488;2023-07-30T11:42:45;7.72;;;6.93;;
60241;SDS011;46103;52.076;113.488;2023-07-30T11:46:04;7.60;;;6.85;;
60241;SDS011;46103;52.076;113.488;2023-07-30T11:49:11;8.77;;;7.97;;
60241;SDS011;46103;52.076;113.488;2023-07-30T11:52:17;9.02;;;8.23;;
60241;SDS011;46103;52.076;113.488;2023-07-30T11:55:22;8.38;;;7.43;;
60241;SDS011;46103;52.076;113.488;2023-07-30T11:58:30;7.32;;;6.63;;
60241;SDS011;46103;52.076;113.488;2023-07-30T12:01:34;7.50;;;6.75;;
60241;SDS011;46103;52.076;113.488;2023-07-30T12:04:43;8.52;;;6.82;;
60241;SDS011;46103;52.076;113.488;2023-07-30T12:08:03;7.53;;;6.82;;
60241;SDS011;46103;52.076;113.488;2023-07-30T12:11:11;8.18;;;7.38;;
60241;SDS011;46103;52.076;113.488;2023-07-30T12:14:15;9.95;;;9.05;;
60241;SDS011;46103;52.076;113.488;2023-07-30T12:17:19;8.63;;;7.70;;
60241;SDS011;46103;52.076;113.488;2023-07-30T12:20:27;8.77;;;7.00;;
60241;SDS011;46103;52.076;113.488;2023-07-30T12:23:45;8.93;;;7.78;;
60241;SDS011;46103;52.076;113.488;2023-07-30T12:26:50;7.88;;;6.68;;
60241;SDS011;46103;52.076;113.488;2023-07-30T12:29:57;9.55;;;8.45;;
60241;SDS011;46103;52.076;113.488;2023-07-30T12:33:04;7.22;;;6.45;;
60241;SDS011;46103;52.076;113.488;2023-07-30T12:36:10;7.10;;;6.40;;
60241;SDS011;46103;52.076;113.488;2023-07-30T12:39:28;9.23;;;7.80;;
60241;SDS011;46103;52.076;113.488;2023-07-30T12:46:22;12.43;;;7.68;;
60241;SDS011;46103;52.076;113.488;2023-07-30T12:50:01;9.32;;;7.10;;
60241;SDS011;46103;52.076;113.488;2023-07-30T12:53:07;7.43;;;6.65;;
60241;SDS011;46103;52.076;113.488;2023-07-30T12:56:24;8.20;;;6.32;;
60241;SDS011;46103;52.076;113.488;2023-07-30T12:59:30;8.07;;;7.28;;
60241;SDS011;46103;52.076;113.488;2023-07-30T13:02:34;7.80;;;6.70;;
60241;SDS011;46103;52.076;113.488;2023-07-30T13:05:44;9.23;;;7.32;;
60241;SDS011;46103;52.076;113.488;2023-07-30T13:08:49;7.15;;;6.40;;
60241;SDS011;46103;52.076;113.488;2023-07-30T13:11:54;9.77;;;7.30;;
60241;SDS011;46103;52.076;113.488;2023-07-30T13:15:14;10.23;;;7.68;;
60241;SDS011;46103;52.076;113.488;2023-07-30T13:18:19;9.05;;;7.82;;
60241;SDS011;46103;52.076;113.488;2023-07-30T13:21:25;8.88;;;7.22;;
60241;SDS011;46103;52.076;113.488;2023-07-30T13:24:53;10.70;;;9.18;;
60241;SDS011;46103;52.076;113.488;2023-07-30T13:29:00;17.05;;;14.55;;
60241;SDS011;46103;52.076;113.488;2023-07-30T13:32:04;16.85;;;15.05;;
60241;SDS011;46103;52.076;113.488;2023-07-30T13:35:09;19.60;;;16.05;;
60241;SDS011;46103;52.076;113.488;2023-07-30T13:38:13;22.75;;;17.95;;
60241;SDS011;46103;52.076;113.488;2023-07-30T13:41:30;41.03;;;36.88;;
60241;SDS011;46103;52.076;113.488;2023-07-30T13:44:38;23.95;;;21.10;;
60241;SDS011;46103;52.076;113.488;2023-07-30T13:47:42;18.38;;;12.77;;
60241;SDS011;46103;52.076;113.488;2023-07-30T13:50:47;17.40;;;13.98;;
60241;SDS011;46103;52.076;113.488;2023-07-30T13:53:50;16.08;;;12.98;;
60241;SDS011;46103;52.076;113.488;2023-07-30T13:56:57;18.63;;;14.90;;
60241;SDS011;46103;52.076;113.488;2023-07-30T14:00:06;16.17;;;13.55;;
60241;SDS011;46103;52.076;113.488;2023-07-30T14:03:12;15.43;;;11.82;;
60241;SDS011;46103;52.076;113.488;2023-07-30T14:06:52;13.50;;;11.38;;
60241;SDS011;46103;52.076;113.488;2023-07-30T14:10:34;11.52;;;9.02;;
60241;SDS011;46103;52.076;113.488;2023-07-30T14:13:39;13.48;;;10.40;;
60241;SDS011;46103;52.076;113.488;2023-07-30T14:16:42;14.32;;;12.55;;
60241;SDS011;46103;52.076;113.488;2023-07-30T14:19:49;17.20;;;14.02;;
60241;SDS011;46103;52.076;113.488;2023-07-30T14:23:36;17.60;;;13.50;;
60241;SDS011;46103;52.076;113.488;2023-07-30T14:27:19;12.55;;;10.60;;
60241;SDS011;46103;52.076;113.488;2023-07-30T14:31:23;13.60;;;11.55;;
60241;SDS011;46103;52.076;113.488;2023-07-30T14:34:27;13.38;;;11.30;;
60241;SDS011;46103;52.076;113.488;2023-07-30T14:37:30;15.35;;;11.00;;
60241;SDS011;46103;52.076;113.488;2023-07-30T14:40:35;11.60;;;9.85;;
60241;SDS011;46103;52.076;113.488;2023-07-30T14:43:38;12.80;;;9.73;;
60241;SDS011;46103;52.076;113.488;2023-07-30T14:46:44;14.68;;;11.38;;
60241;SDS011;46103;52.076;113.488;2023-07-30T14:49:48;16.77;;;14.23;;
60241;SDS011;46103;52.076;113.488;2023-07-30T14:52:54;12.85;;;11.55;;
60241;SDS011;46103;52.076;113.488;2023-07-30T14:55:58;13.93;;;11.50;;
60241;SDS011;46103;52.076;113.488;2023-07-30T14:59:04;14.75;;;11.68;;
60241;SDS011;46103;52.076;113.488;2023-07-30T15:02:07;13.80;;;12.38;;
60241;SDS011;46103;52.076;113.488;2023-07-30T15:05:11;13.93;;;11.40;;
60241;SDS011;46103;52.076;113.488;2023-07-30T15:08:14;16.30;;;12.35;;
60241;SDS011;46103;52.076;113.488;2023-07-30T15:11:18;15.00;;;11.80;;
60241;SDS011;46103;52.076;113.488;2023-07-30T15:14:22;14.73;;;11.43;;
60241;SDS011;46103;52.076;113.488;2023-07-30T15:17:26;17.42;;;15.50;;
60241;SDS011;46103;52.076;113.488;2023-07-30T15:20:30;18.77;;;16.80;;
60241;SDS011;46103;52.076;113.488;2023-07-30T15:23:34;17.23;;;13.73;;
60241;SDS011;46103;52.076;113.488;2023-07-30T15:26:37;14.75;;;12.63;;
60241;SDS011;46103;52.076;113.488;2023-07-30T15:29:41;16.10;;;13.68;;
60241;SDS011;46103;52.076;113.488;2023-07-30T15:32:46;15.00;;;13.15;;
60241;SDS011;46103;52.076;113.488;2023-07-30T15:35:50;13.38;;;12.02;;
60241;SDS011;46103;52.076;113.488;2023-07-30T15:38:57;13.73;;;11.85;;
60241;SDS011;46103;52.076;113.488;2023-07-30T15:42:02;14.25;;;12.77;;
60241;SDS011;46103;52.076;113.488;2023-07-30T15:45:07;16.23;;;11.93;;
60241;SDS011;46103;52.076;113.488;2023-07-30T15:48:11;13.77;;;11.57;;
60241;SDS011;46103;52.076;113.488;2023-07-30T15:51:15;14.52;;;11.73;;
60241;SDS011;46103;52.076;113.488;2023-07-30T15:54:30;13.85;;;11.38;;
60241;SDS011;46103;52.076;113.488;2023-07-30T15:57:37;13.73;;;11.82;;
60241;SDS011;46103;52.076;113.488;2023-07-30T16:00:41;13.40;;;11.07;;
60241;SDS011;46103;52.076;113.488;2023-07-30T16:03:46;13.48;;;11.38;;
60241;SDS011;46103;52.076;113.488;2023-07-30T16:06:49;13.52;;;12.10;;
60241;SDS011;46103;52.076;113.488;2023-07-30T16:09:53;13.35;;;10.95;;
60241;SDS011;46103;52.076;113.488;2023-07-30T16:12:56;12.65;;;10.35;;
60241;SDS011;46103;52.076;113.488;2023-07-30T16:16:10;14.15;;;10.85;;
60241;SDS011;46103;52.076;113.488;2023-07-30T16:19:16;13.45;;;10.23;;
60241;SDS011;46103;52.076;113.488;2023-07-30T16:22:20;12.40;;;10.85;;
60241;SDS011;46103;52.076;113.488;2023-07-30T16:25:23;13.02;;;10.38;;
60241;SDS011;46103;52.076;113.488;2023-07-30T16:28:27;13.25;;;10.77;;
60241;SDS011;46103;52.076;113.488;2023-07-30T16:31:31;13.45;;;11.32;;
60241;SDS011;46103;52.076;113.488;2023-07-30T16:34:35;12.90;;;10.65;;
60241;SDS011;46103;52.076;113.488;2023-07-30T16:37:38;14.35;;;11.77;;
60241;SDS011;46103;52.076;113.488;2023-07-30T16:40:44;12.20;;;10.77;;
60241;SDS011;46103;52.076;113.488;2023-07-30T16:43:47;13.15;;;10.65;;
60241;SDS011;46103;52.076;113.488;2023-07-30T16:46:50;12.50;;;9.90;;
60241;SDS011;46103;52.076;113.488;2023-07-30T16:49:54;11.65;;;10.23;;
60241;SDS011;46103;52.076;113.488;2023-07-30T16:52:57;12.63;;;9.43;;
60241;SDS011;46103;52.076;113.488;2023-07-30T16:56:11;12.18;;;9.15;;
60241;SDS011;46103;52.076;113.488;2023-07-30T16:59:16;14.15;;;11.18;;
60241;SDS011;46103;52.076;113.488;2023-07-30T17:02:19;13.75;;;11.02;;
60241;SDS011;46103;52.076;113.488;2023-07-30T17:05:23;12.40;;;10.10;;
60241;SDS011;46103;52.076;113.488;2023-07-30T17:08:27;15.82;;;12.13;;
60241;SDS011;46103;52.076;113.488;2023-07-30T17:11:32;12.75;;;9.80;;
60241;SDS011;46103;52.076;113.488;2023-07-30T17:14:35;12.65;;;9.55;;
60241;SDS011;46103;52.076;113.488;2023-07-30T17:17:39;12.25;;;9.98;;
60241;SDS011;46103;52.076;113.488;2023-07-30T17:20:43;10.73;;;8.95;;
60241;SDS011;46103;52.076;113.488;2023-07-30T17:23:48;11.85;;;9.63;;
60241;SDS011;46103;52.076;113.488;2023-07-30T17:26:51;14.75;;;10.35;;
60241;SDS011;46103;52.076;113.488;2023-07-30T17:29:55;12.35;;;10.35;;
60241;SDS011;46103;52.076;113.488;2023-07-30T17:33:01;12.95;;;10.32;;
60241;SDS011;46103;52.076;113.488;2023-07-30T17:36:05;13.02;;;10.05;;
60241;SDS011;46103;52.076;113.488;2023-07-30T17:39:11;13.35;;;10.15;;
60241;SDS011;46103;52.076;113.488;2023-07-30T17:42:15;13.13;;;10.07;;
60241;SDS011;46103;52.076;113.488;2023-07-30T17:45:18;13.85;;;10.68;;
60241;SDS011;46103;52.076;113.488;2023-07-30T17:48:22;14.55;;;10.45;;
60241;SDS011;46103;52.076;113.488;2023-07-30T17:51:26;16.60;;;11.93;;
60241;SDS011;46103;52.076;113.488;2023-07-30T17:54:30;13.30;;;10.27;;
60241;SDS011;46103;52.076;113.488;2023-07-30T17:57:34;12.60;;;9.75;;
60241;SDS011;46103;52.076;113.488;2023-07-30T18:00:44;12.20;;;9.65;;
60241;SDS011;46103;52.076;113.488;2023-07-30T18:03:49;10.23;;;9.15;;
60241;SDS011;46103;52.076;113.488;2023-07-30T18:06:53;12.45;;;9.98;;